createdAt,value
2019-03-02T00:00:13.116Z,0
2019-03-02T00:01:24.076Z,0
2019-03-02T00:02:35.052Z,0
2019-03-02T00:03:45.552Z,0
2019-03-02T00:04:58.893Z,0
2019-03-02T00:06:10.741Z,0
2019-03-02T00:07:21.724Z,0
2019-03-02T00:08:34.802Z,0
2019-03-02T00:09:44.956Z,0
2019-03-02T00:10:55.446Z,0
2019-03-02T00:12:06.903Z,0
2019-03-02T00:13:18.157Z,0
2019-03-02T00:14:28.910Z,0
2019-03-02T00:15:40.434Z,0
2019-03-02T00:16:52.989Z,0
2019-03-02T00:18:04.862Z,0
2019-03-02T00:19:16.473Z,0
2019-03-02T00:20:27.525Z,0
2019-03-02T00:21:41.042Z,0
2019-03-02T00:22:53.290Z,0
2019-03-02T00:24:04.077Z,0
2019-03-02T00:25:14.006Z,0
2019-03-02T00:26:23.920Z,0
2019-03-02T00:27:33.847Z,0
2019-03-02T00:28:45.164Z,0
2019-03-02T00:29:56.308Z,0
2019-03-02T00:31:07.518Z,0
2019-03-02T00:32:19.316Z,0
2019-03-02T00:33:30.595Z,0
2019-03-02T00:34:41.406Z,0
2019-03-02T00:35:53.351Z,0
2019-03-02T00:37:05.740Z,0
2019-03-02T00:38:18.501Z,0
2019-03-02T00:39:29.392Z,0
2019-03-02T00:40:41.071Z,0
2019-03-02T00:41:51.901Z,0
2019-03-02T00:43:02.390Z,0
2019-03-02T00:44:13.441Z,0
2019-03-02T00:45:24.875Z,0
2019-03-02T00:46:34.544Z,0
2019-03-02T00:47:45.774Z,0
2019-03-02T00:48:56.561Z,0
2019-03-02T00:50:10.312Z,0
2019-03-02T00:51:20.849Z,0
2019-03-02T00:52:33.178Z,0
2019-03-02T00:53:45.165Z,0
2019-03-02T00:55:05.316Z,0
2019-03-02T00:56:17.596Z,0
2019-03-02T00:57:28.394Z,0
2019-03-02T00:58:39.386Z,0
2019-03-02T00:59:49.891Z,0
2019-03-02T01:01:03.319Z,0
2019-03-02T01:02:14.131Z,0
2019-03-02T01:03:25.335Z,0
2019-03-02T01:04:36.315Z,0
2019-03-02T01:05:46.798Z,0
2019-03-02T01:06:58.418Z,0
2019-03-02T01:08:09.514Z,0
2019-03-02T01:09:21.332Z,0
2019-03-02T01:10:32.312Z,0
2019-03-02T01:11:43.647Z,0
2019-03-02T01:12:54.789Z,0
2019-03-02T01:14:06.186Z,0
2019-03-02T01:15:18.052Z,0
2019-03-02T01:16:29.384Z,0
2019-03-02T01:17:41.178Z,0
2019-03-02T01:18:52.047Z,0
2019-03-02T01:20:03.404Z,0
2019-03-02T01:21:14.526Z,0
2019-03-02T01:22:26.819Z,0
2019-03-02T01:23:38.261Z,0
2019-03-02T01:24:48.615Z,0
2019-03-02T01:25:59.064Z,0
2019-03-02T01:27:10.161Z,0
2019-03-02T01:28:20.287Z,0
2019-03-02T01:29:30.030Z,0
2019-03-02T01:30:40.543Z,0
2019-03-02T01:31:51.342Z,0
2019-03-02T01:33:02.204Z,0
2019-03-02T01:34:15.657Z,0
2019-03-02T01:35:27.517Z,0
2019-03-02T01:36:39.511Z,0
2019-03-02T01:37:53.323Z,0
2019-03-02T01:39:04.419Z,0
2019-03-02T01:40:15.830Z,0
2019-03-02T01:41:27.360Z,0
2019-03-02T01:42:39.343Z,0
2019-03-02T01:43:50.873Z,0
2019-03-02T01:45:01.292Z,0
2019-03-02T01:46:13.053Z,0
2019-03-02T01:47:26.317Z,0
2019-03-02T01:48:37.467Z,0
2019-03-02T01:49:47.393Z,0
2019-03-02T01:50:58.471Z,0
2019-03-02T01:52:08.432Z,0
2019-03-02T01:53:19.521Z,0
2019-03-02T01:54:30.976Z,0
2019-03-02T01:55:41.684Z,0
2019-03-02T01:56:52.227Z,0
2019-03-02T01:58:02.772Z,0
2019-03-02T01:59:13.648Z,0
2019-03-02T02:00:24.135Z,0
2019-03-02T02:01:35.358Z,0
2019-03-02T02:02:46.709Z,0
2019-03-02T02:03:57.572Z,0
2019-03-02T02:05:07.969Z,0
2019-03-02T02:06:18.358Z,0
2019-03-02T02:07:28.894Z,0
2019-03-02T02:08:39.456Z,0
2019-03-02T02:09:50.216Z,0
2019-03-02T02:11:00.131Z,0
2019-03-02T02:12:10.043Z,0
2019-03-02T02:13:19.965Z,0
2019-03-02T02:14:29.889Z,0
2019-03-02T02:15:39.990Z,0
2019-03-02T02:16:51.510Z,0
2019-03-02T02:18:02.624Z,0
2019-03-02T02:19:12.672Z,0
2019-03-02T02:20:24.322Z,0
2019-03-02T02:21:36.260Z,0
2019-03-02T02:22:47.560Z,0
2019-03-02T02:23:59.492Z,0
2019-03-02T02:25:11.199Z,0
2019-03-02T02:26:22.092Z,0
2019-03-02T02:27:32.691Z,0
2019-03-02T02:28:43.034Z,0
2019-03-02T02:29:53.880Z,0
2019-03-02T02:31:13.069Z,0
2019-03-02T02:32:30.627Z,0
2019-03-02T02:33:47.511Z,0
2019-03-02T02:35:05.425Z,0
2019-03-02T02:36:22.979Z,0
2019-03-02T02:37:40.979Z,0
2019-03-02T02:38:58.962Z,0
2019-03-02T02:40:15.118Z,0
2019-03-02T02:41:32.410Z,0
2019-03-02T02:42:49.012Z,0
2019-03-02T02:44:06.416Z,0
2019-03-02T02:45:24.283Z,0
2019-03-02T02:46:41.820Z,0
2019-03-02T02:48:01.718Z,0
2019-03-02T02:49:18.773Z,0
2019-03-02T02:50:38.756Z,0
2019-03-02T02:51:55.738Z,0
2019-03-02T02:53:13.624Z,0
2019-03-02T02:54:29.906Z,0
2019-03-02T02:55:46.003Z,0
2019-03-02T02:57:01.395Z,0
2019-03-02T02:58:19.516Z,0
2019-03-02T02:59:29.272Z,0
2019-03-02T03:00:40.573Z,0
2019-03-02T03:01:50.318Z,0
2019-03-02T03:03:00.243Z,0
2019-03-02T03:04:10.543Z,0
2019-03-02T03:05:24.721Z,0
2019-03-02T03:06:39.989Z,0
2019-03-02T03:08:00.561Z,0
2019-03-02T03:09:18.851Z,0
2019-03-02T03:10:35.343Z,0
2019-03-02T03:11:53.399Z,0
2019-03-02T03:13:09.446Z,0
2019-03-02T03:14:24.846Z,0
2019-03-02T03:15:43.815Z,0
2019-03-02T03:17:00.203Z,0
2019-03-02T03:18:17.898Z,0
2019-03-02T03:19:35.257Z,0
2019-03-02T03:20:53.036Z,0
2019-03-02T03:22:11.657Z,0
2019-03-02T03:23:27.620Z,0
2019-03-02T03:24:44.989Z,0
2019-03-02T03:26:03.658Z,0
2019-03-02T03:27:18.320Z,0
2019-03-02T03:28:35.524Z,0
2019-03-02T03:29:52.129Z,0
2019-03-02T03:31:02.108Z,0
2019-03-02T03:32:21.153Z,0
2019-03-02T03:33:47.112Z,0
2019-03-02T03:34:57.524Z,0
2019-03-02T03:36:07.476Z,0
2019-03-02T03:37:20.624Z,0
2019-03-02T03:38:36.665Z,0
2019-03-02T03:39:51.377Z,0
2019-03-02T03:41:07.916Z,0
2019-03-02T03:42:27.429Z,0
2019-03-02T03:43:46.971Z,0
2019-03-02T03:44:59.692Z,0
2019-03-02T03:46:09.895Z,0
2019-03-02T03:47:19.815Z,0
2019-03-02T03:48:29.789Z,0
2019-03-02T03:49:43.971Z,0
2019-03-02T03:50:59.830Z,0
2019-03-02T03:52:18.194Z,0
2019-03-02T03:53:36.737Z,0
2019-03-02T03:54:52.669Z,0
2019-03-02T03:56:10.876Z,0
2019-03-02T03:57:26.647Z,0
2019-03-02T03:58:42.608Z,0
2019-03-02T04:00:00.689Z,0
2019-03-02T04:01:19.702Z,0
2019-03-02T04:02:37.213Z,0
2019-03-02T04:03:55.896Z,0
2019-03-02T04:05:15.240Z,0
2019-03-02T04:06:31.721Z,0
2019-03-02T04:07:48.128Z,0
2019-03-02T04:09:03.092Z,0
2019-03-02T04:10:13.448Z,0
2019-03-02T04:11:23.383Z,0
2019-03-02T04:12:34.124Z,0
2019-03-02T04:13:53.780Z,0
2019-03-02T04:15:10.698Z,0
2019-03-02T04:16:27.808Z,0
2019-03-02T04:17:44.159Z,0
2019-03-02T04:19:02.956Z,0
2019-03-02T04:20:21.702Z,0
2019-03-02T04:21:36.884Z,0
2019-03-02T04:22:51.937Z,0
2019-03-02T04:24:10.666Z,0
2019-03-02T04:25:27.143Z,0
2019-03-02T04:26:45.890Z,0
2019-03-02T04:28:03.222Z,0
2019-03-02T04:29:21.717Z,0
2019-03-02T04:30:40.264Z,0
2019-03-02T04:31:57.771Z,0
2019-03-02T04:33:14.946Z,0
2019-03-02T04:34:30.333Z,0
2019-03-02T04:35:43.575Z,0
2019-03-02T04:36:57.150Z,0
2019-03-02T04:38:10.403Z,0
2019-03-02T04:39:23.471Z,0
2019-03-02T04:40:38.393Z,0
2019-03-02T04:41:49.212Z,0
2019-03-02T04:42:59.950Z,0
2019-03-02T04:44:09.860Z,0
2019-03-02T04:45:19.775Z,0
2019-03-02T04:46:29.844Z,0
2019-03-02T04:47:39.759Z,0
2019-03-02T04:48:49.430Z,0
2019-03-02T04:50:01.026Z,0
2019-03-02T04:51:11.984Z,0
2019-03-02T04:52:24.125Z,0
2019-03-02T04:53:34.656Z,0
2019-03-02T04:54:47.026Z,0
2019-03-02T04:55:58.312Z,0
2019-03-02T04:57:09.364Z,0
2019-03-02T04:58:21.647Z,0
2019-03-02T04:59:32.577Z,0
2019-03-02T05:00:42.665Z,0
2019-03-02T05:01:55.657Z,0
2019-03-02T05:03:05.713Z,0
2019-03-02T05:04:15.776Z,0
2019-03-02T05:05:25.698Z,0
2019-03-02T05:06:35.359Z,0
2019-03-02T05:07:45.293Z,0
2019-03-02T05:08:55.211Z,0
2019-03-02T05:10:05.252Z,0
2019-03-02T05:11:15.163Z,0
2019-03-02T05:12:25.139Z,0
2019-03-02T05:13:38.034Z,0
2019-03-02T05:14:49.790Z,0
2019-03-02T05:16:01.951Z,0
2019-03-02T05:17:14.587Z,0
2019-03-02T05:18:27.709Z,0
2019-03-02T05:19:39.361Z,0
2019-03-02T05:20:51.540Z,0
2019-03-02T05:22:01.450Z,0
2019-03-02T05:23:11.366Z,0
2019-03-02T05:24:21.289Z,0
2019-03-02T05:25:31.210Z,0
2019-03-02T05:26:41.206Z,0
2019-03-02T05:27:51.119Z,0
2019-03-02T05:29:01.031Z,0
2019-03-02T05:30:10.951Z,0
2019-03-02T05:31:21.116Z,0
2019-03-02T05:32:31.089Z,0
2019-03-02T05:33:41.014Z,0
2019-03-02T05:34:50.692Z,0
2019-03-02T05:36:01.302Z,0
2019-03-02T05:37:12.400Z,0
2019-03-02T05:38:24.883Z,0
2019-03-02T05:39:34.797Z,0
2019-03-02T05:40:44.707Z,0
2019-03-02T05:41:55.675Z,0
2019-03-02T05:43:05.606Z,0
2019-03-02T05:44:15.681Z,0
2019-03-02T05:45:28.727Z,0
2019-03-02T05:46:38.654Z,0
2019-03-02T05:47:48.576Z,0
2019-03-02T05:48:58.488Z,0
2019-03-02T05:50:08.451Z,0
2019-03-02T05:51:18.365Z,0
2019-03-02T05:52:28.408Z,0
2019-03-02T05:53:39.873Z,0
2019-03-02T05:54:51.157Z,0
2019-03-02T05:56:03.458Z,0
2019-03-02T05:57:14.745Z,0
2019-03-02T05:58:26.403Z,0
2019-03-02T05:59:37.411Z,0
2019-03-02T06:00:48.507Z,0
2019-03-02T06:01:58.515Z,0
2019-03-02T06:03:08.424Z,5
2019-03-02T06:04:21.996Z,5
2019-03-02T06:05:32.097Z,5
2019-03-02T06:06:42.015Z,5
2019-03-02T06:07:53.755Z,5
2019-03-02T06:09:03.904Z,5
2019-03-02T06:10:16.185Z,5
2019-03-02T06:11:26.102Z,10
2019-03-02T06:12:35.823Z,10
2019-03-02T06:13:45.791Z,10
2019-03-02T06:14:55.708Z,10
2019-03-02T06:16:05.628Z,10
2019-03-02T06:17:15.547Z,10
2019-03-02T06:18:25.467Z,15
2019-03-02T06:19:35.439Z,15
2019-03-02T06:20:47.124Z,15
2019-03-02T06:21:57.045Z,15
2019-03-02T06:23:06.963Z,20
2019-03-02T06:24:17.954Z,20
2019-03-02T06:25:30.997Z,20
2019-03-02T06:26:42.752Z,20
2019-03-02T06:27:56.718Z,25
2019-03-02T06:29:07.486Z,25
2019-03-02T06:30:18.027Z,25
2019-03-02T06:31:28.824Z,30
2019-03-02T06:32:40.753Z,30
2019-03-02T06:33:53.816Z,35
2019-03-02T06:35:05.542Z,35
2019-03-02T06:36:18.588Z,40
2019-03-02T06:37:29.671Z,40
2019-03-02T06:38:41.734Z,45
2019-03-02T06:39:56.172Z,50
2019-03-02T06:41:07.547Z,50
2019-03-02T06:42:19.492Z,55
2019-03-02T06:43:31.515Z,55
2019-03-02T06:44:43.734Z,60
2019-03-02T06:45:53.933Z,60
2019-03-02T06:47:05.786Z,65
2019-03-02T06:48:19.230Z,65
2019-03-02T06:49:30.676Z,70
2019-03-02T06:50:42.883Z,70
2019-03-02T06:51:54.660Z,75
2019-03-02T06:53:08.779Z,75
2019-03-02T06:54:24.407Z,80
2019-03-02T06:55:35.058Z,80
2019-03-02T06:56:46.912Z,85
2019-03-02T06:57:59.787Z,85
2019-03-02T06:59:11.496Z,90
2019-03-02T07:00:23.613Z,90
2019-03-02T07:01:34.607Z,95
2019-03-02T07:02:45.341Z,95
2019-03-02T07:03:56.270Z,100
2019-03-02T07:05:09.861Z,100
2019-03-02T07:06:22.122Z,100
2019-03-02T07:07:32.394Z,100
2019-03-02T07:08:44.248Z,105
2019-03-02T07:09:54.865Z,105
2019-03-02T07:11:07.538Z,105
2019-03-02T07:12:19.062Z,110
2019-03-02T07:13:30.933Z,110
2019-03-02T07:14:41.951Z,110
2019-03-02T07:15:54.310Z,115
2019-03-02T07:17:05.583Z,115
2019-03-02T07:18:17.472Z,115
2019-03-02T07:19:27.384Z,115
2019-03-02T07:20:37.804Z,125
2019-03-02T07:21:51.945Z,125
2019-03-02T07:23:02.800Z,125
2019-03-02T07:24:12.718Z,135
2019-03-02T07:25:24.021Z,135
2019-03-02T07:26:33.939Z,140
2019-03-02T07:27:43.849Z,140
2019-03-02T07:28:53.860Z,140
2019-03-02T07:30:04.657Z,140
2019-03-02T07:31:14.569Z,140
2019-03-02T07:32:25.094Z,145
2019-03-02T07:33:35.014Z,150
2019-03-02T07:34:50.544Z,155
2019-03-02T07:36:02.851Z,155
2019-03-02T07:37:16.385Z,160
2019-03-02T07:38:29.724Z,165
2019-03-02T07:39:43.811Z,170
2019-03-02T07:40:55.161Z,175
2019-03-02T07:42:07.592Z,180
2019-03-02T07:43:19.403Z,190
2019-03-02T07:44:31.910Z,200
2019-03-02T07:45:44.631Z,210
2019-03-02T07:46:57.667Z,215
2019-03-02T07:48:10.037Z,220
2019-03-02T07:49:22.421Z,225
2019-03-02T07:50:36.973Z,235
2019-03-02T07:51:48.689Z,245
2019-03-02T07:53:00.356Z,250
2019-03-02T07:54:13.233Z,260
2019-03-02T07:55:27.443Z,255
2019-03-02T07:56:39.698Z,255
2019-03-02T07:57:50.934Z,255
2019-03-02T07:59:02.135Z,250
2019-03-02T08:00:15.286Z,240
2019-03-02T08:01:26.296Z,245
2019-03-02T08:02:39.270Z,255
2019-03-02T08:03:49.193Z,260
2019-03-02T08:05:00.068Z,270
2019-03-02T08:06:10.947Z,275
2019-03-02T08:07:20.876Z,285
2019-03-02T08:08:30.893Z,295
2019-03-02T08:09:40.813Z,305
2019-03-02T08:10:50.726Z,315
2019-03-02T08:12:02.781Z,320
2019-03-02T08:13:12.694Z,320
2019-03-02T08:14:23.363Z,315
2019-03-02T08:15:35.169Z,320
2019-03-02T08:16:47.385Z,305
2019-03-02T08:17:58.840Z,295
2019-03-02T08:19:11.162Z,280
2019-03-02T08:20:24.353Z,270
2019-03-02T08:21:38.272Z,270
2019-03-02T08:22:51.124Z,265
2019-03-02T08:24:01.043Z,255
2019-03-02T08:25:10.986Z,250
2019-03-02T08:26:22.517Z,250
2019-03-02T08:27:37.147Z,255
2019-03-02T08:28:50.974Z,255
2019-03-02T08:30:04.325Z,265
2019-03-02T08:31:18.135Z,270
2019-03-02T08:32:31.135Z,275
2019-03-02T08:33:52.801Z,285
2019-03-02T08:35:02.721Z,290
2019-03-02T08:36:16.820Z,290
2019-03-02T08:37:29.782Z,285
2019-03-02T08:38:40.531Z,285
2019-03-02T08:39:53.933Z,285
2019-03-02T08:41:07.693Z,285
2019-03-02T08:42:19.484Z,290
2019-03-02T08:43:29.408Z,295
2019-03-02T08:44:39.861Z,290
2019-03-02T08:45:49.789Z,295
2019-03-02T08:46:59.703Z,295
2019-03-02T08:48:09.696Z,300
2019-03-02T08:49:19.629Z,300
2019-03-02T08:50:29.573Z,305
2019-03-02T08:51:39.494Z,320
2019-03-02T08:52:49.414Z,325
2019-03-02T08:53:59.429Z,320
2019-03-02T08:55:09.349Z,330
2019-03-02T08:56:21.484Z,350
2019-03-02T08:57:32.793Z,335
2019-03-02T08:58:42.467Z,320
2019-03-02T08:59:52.503Z,330
2019-03-02T09:01:02.418Z,310
2019-03-02T09:02:12.339Z,295
2019-03-02T09:03:22.278Z,275
2019-03-02T09:04:33.044Z,265
2019-03-02T09:06:00.410Z,260
2019-03-02T09:07:13.942Z,265
2019-03-02T09:08:23.872Z,265
2019-03-02T09:09:33.540Z,270
2019-03-02T09:10:45.779Z,295
2019-03-02T09:11:55.891Z,320
2019-03-02T09:13:09.125Z,340
2019-03-02T09:14:21.898Z,380
2019-03-02T09:15:37.407Z,390
2019-03-02T09:16:49.689Z,400
2019-03-02T09:18:05.219Z,385
2019-03-02T09:19:16.753Z,395
2019-03-02T09:20:26.891Z,405
2019-03-02T09:21:36.821Z,385
2019-03-02T09:22:46.741Z,360
2019-03-02T09:23:58.906Z,370
2019-03-02T09:25:08.861Z,365
2019-03-02T09:26:19.782Z,345
2019-03-02T09:27:30.264Z,370
2019-03-02T09:28:39.940Z,375
2019-03-02T09:29:51.409Z,370
2019-03-02T09:31:06.451Z,360
2019-03-02T09:32:18.989Z,340
2019-03-02T09:33:33.698Z,325
2019-03-02T09:34:49.501Z,320
2019-03-02T09:36:04.547Z,315
2019-03-02T09:37:16.689Z,330
2019-03-02T09:38:30.426Z,350
2019-03-02T09:39:44.320Z,360
2019-03-02T09:40:56.343Z,355
2019-03-02T09:42:08.746Z,360
2019-03-02T09:43:21.132Z,375
2019-03-02T09:44:32.710Z,400
2019-03-02T09:45:44.737Z,425
2019-03-02T09:46:54.853Z,425
2019-03-02T09:48:04.824Z,410
2019-03-02T09:49:16.906Z,410
2019-03-02T09:50:28.908Z,395
2019-03-02T09:51:38.837Z,385
2019-03-02T09:52:50.549Z,375
2019-03-02T09:54:00.479Z,365
2019-03-02T09:55:10.445Z,360
2019-03-02T09:56:20.885Z,345
2019-03-02T09:57:32.529Z,340
2019-03-02T09:58:42.206Z,350
2019-03-02T09:59:55.121Z,375
2019-03-02T10:01:11.711Z,395
2019-03-02T10:02:24.083Z,400
2019-03-02T10:03:37.222Z,400
2019-03-02T10:04:49.011Z,400
2019-03-02T10:05:59.620Z,400
2019-03-02T10:07:11.684Z,405
2019-03-02T10:08:23.021Z,410
2019-03-02T10:09:36.245Z,415
2019-03-02T10:10:46.193Z,415
2019-03-02T10:11:56.111Z,420
2019-03-02T10:13:08.142Z,420
2019-03-02T10:14:20.618Z,420
2019-03-02T10:15:33.970Z,410
2019-03-02T10:16:43.911Z,400
2019-03-02T10:17:53.605Z,395
2019-03-02T10:19:03.572Z,390
2019-03-02T10:20:14.785Z,380
2019-03-02T10:21:24.706Z,370
2019-03-02T10:22:35.312Z,370
2019-03-02T10:23:49.342Z,385
2019-03-02T10:25:02.494Z,390
2019-03-02T10:26:14.795Z,405
2019-03-02T10:27:28.320Z,420
2019-03-02T10:28:41.407Z,435
2019-03-02T10:29:55.602Z,455
2019-03-02T10:31:08.618Z,485
2019-03-02T10:32:19.593Z,505
2019-03-02T10:33:32.106Z,520
2019-03-02T10:34:46.917Z,535
2019-03-02T10:36:00.633Z,545
2019-03-02T10:37:14.285Z,545
2019-03-02T10:38:28.253Z,525
2019-03-02T10:39:39.952Z,535
2019-03-02T10:40:52.034Z,505
2019-03-02T10:42:05.176Z,515
2019-03-02T10:43:18.639Z,540
2019-03-02T10:44:30.915Z,565
2019-03-02T10:45:40.960Z,620
2019-03-02T10:46:50.891Z,625
2019-03-02T10:48:01.387Z,590
2019-03-02T10:49:15.633Z,560
2019-03-02T10:50:28.225Z,535
2019-03-02T10:51:42.462Z,515
2019-03-02T10:52:56.264Z,500
2019-03-02T10:54:09.165Z,485
2019-03-02T10:55:21.654Z,480
2019-03-02T10:56:36.489Z,490
2019-03-02T10:57:46.603Z,490
2019-03-02T10:58:56.527Z,480
2019-03-02T11:00:06.209Z,490
2019-03-02T11:01:16.933Z,500
2019-03-02T11:02:30.692Z,495
2019-03-02T11:03:41.438Z,475
2019-03-02T11:04:54.270Z,460
2019-03-02T11:06:07.243Z,420
2019-03-02T11:07:20.119Z,395
2019-03-02T11:08:32.934Z,410
2019-03-02T11:09:47.066Z,455
2019-03-02T11:11:00.306Z,515
2019-03-02T11:12:14.077Z,545
2019-03-02T11:13:26.528Z,490
2019-03-02T11:14:41.155Z,460
2019-03-02T11:15:54.830Z,455
2019-03-02T11:17:06.384Z,470
2019-03-02T11:18:16.318Z,485
2019-03-02T11:19:26.242Z,490
2019-03-02T11:20:36.175Z,505
2019-03-02T11:21:46.094Z,620
2019-03-02T11:22:55.520Z,605
2019-03-02T11:24:07.145Z,625
2019-03-02T11:25:17.063Z,755
2019-03-02T11:26:27.089Z,805
2019-03-02T11:27:37.016Z,905
2019-03-02T11:28:46.941Z,890
2019-03-02T11:30:00.580Z,890
2019-03-02T11:31:10.511Z,670
2019-03-02T11:32:25.333Z,620
2019-03-02T11:33:38.325Z,560
2019-03-02T11:34:48.248Z,555
2019-03-02T11:35:58.178Z,580
2019-03-02T11:37:08.099Z,545
2019-03-02T11:38:18.028Z,515
2019-03-02T11:39:27.975Z,500
2019-03-02T11:40:40.340Z,510
2019-03-02T11:41:50.263Z,530
2019-03-02T11:43:00.188Z,550
2019-03-02T11:44:11.945Z,560
2019-03-02T11:45:21.615Z,565
2019-03-02T11:46:31.542Z,565
2019-03-02T11:47:44.810Z,570
2019-03-02T11:49:04.343Z,565
2019-03-02T11:50:16.924Z,575
2019-03-02T11:51:29.689Z,600
2019-03-02T11:52:43.419Z,605
2019-03-02T11:53:57.057Z,610
2019-03-02T11:55:11.531Z,650
2019-03-02T11:56:32.277Z,640
2019-03-02T11:57:42.209Z,635
2019-03-02T11:58:52.129Z,580
2019-03-02T12:00:03.020Z,530
2019-03-02T12:01:12.965Z,515
2019-03-02T12:02:28.761Z,510
2019-03-02T12:03:43.986Z,515
2019-03-02T12:04:57.179Z,510
2019-03-02T12:06:14.813Z,510
2019-03-02T12:07:24.497Z,520
2019-03-02T12:08:34.424Z,530
2019-03-02T12:09:44.343Z,560
2019-03-02T12:10:54.032Z,540
2019-03-02T12:12:04.061Z,520
2019-03-02T12:13:13.992Z,500
2019-03-02T12:14:23.912Z,490
2019-03-02T12:15:34.646Z,475
2019-03-02T12:16:45.482Z,470
2019-03-02T12:17:57.740Z,465
2019-03-02T12:19:09.936Z,460
2019-03-02T12:20:21.533Z,460
2019-03-02T12:21:31.731Z,460
2019-03-02T12:22:44.935Z,465
2019-03-02T12:23:54.958Z,470
2019-03-02T12:25:08.063Z,485
2019-03-02T12:26:20.657Z,490
2019-03-02T12:27:31.956Z,485
2019-03-02T12:28:44.736Z,490
2019-03-02T12:29:56.913Z,490
2019-03-02T12:31:06.844Z,490
2019-03-02T12:32:18.284Z,495
2019-03-02T12:33:30.360Z,495
2019-03-02T12:34:43.957Z,490
2019-03-02T12:35:53.984Z,495
2019-03-02T12:37:03.876Z,480
2019-03-02T12:38:20.033Z,455
2019-03-02T12:39:33.663Z,430
2019-03-02T12:40:47.460Z,400
2019-03-02T12:41:59.917Z,380
2019-03-02T12:43:14.799Z,355
2019-03-02T12:44:28.652Z,335
2019-03-02T12:45:41.046Z,330
2019-03-02T12:46:59.211Z,330
2019-03-02T12:48:09.801Z,325
2019-03-02T12:49:20.734Z,330
2019-03-02T12:50:33.038Z,330
2019-03-02T12:51:46.857Z,330
2019-03-02T12:52:58.996Z,340
2019-03-02T12:54:13.908Z,350
2019-03-02T12:55:27.909Z,350
2019-03-02T12:56:41.933Z,340
2019-03-02T12:57:55.150Z,350
2019-03-02T12:59:11.157Z,360
2019-03-02T13:00:21.081Z,355
2019-03-02T13:01:33.849Z,375
2019-03-02T13:02:51.208Z,380
2019-03-02T13:04:01.360Z,380
2019-03-02T13:05:11.285Z,385
2019-03-02T13:06:21.209Z,405
2019-03-02T13:07:31.137Z,435
2019-03-02T13:08:42.179Z,515
2019-03-02T13:09:52.100Z,640
2019-03-02T13:11:02.944Z,790
2019-03-02T13:12:17.067Z,705
2019-03-02T13:13:30.405Z,710
2019-03-02T13:14:43.629Z,960
2019-03-02T13:15:56.814Z,930
2019-03-02T13:17:10.837Z,1005
2019-03-02T13:18:23.771Z,700
2019-03-02T13:19:36.420Z,710
2019-03-02T13:20:49.203Z,730
2019-03-02T13:22:01.338Z,935
2019-03-02T13:23:13.921Z,925
2019-03-02T13:24:29.831Z,840
2019-03-02T13:25:43.798Z,815
2019-03-02T13:26:56.775Z,690
2019-03-02T13:28:12.340Z,750
2019-03-02T13:29:23.647Z,615
2019-03-02T13:30:36.863Z,515
2019-03-02T13:31:51.003Z,490
2019-03-02T13:33:03.276Z,480
2019-03-02T13:34:16.500Z,485
2019-03-02T13:35:30.800Z,495
2019-03-02T13:36:43.903Z,500
2019-03-02T13:37:59.472Z,495
2019-03-02T13:39:17.542Z,465
2019-03-02T13:40:33.722Z,435
2019-03-02T13:41:46.401Z,405
2019-03-02T13:43:06.796Z,385
2019-03-02T13:44:16.909Z,350
2019-03-02T13:45:28.816Z,315
2019-03-02T13:46:42.288Z,295
2019-03-02T13:47:56.046Z,280
2019-03-02T13:49:09.015Z,285
2019-03-02T13:50:22.809Z,275
2019-03-02T13:51:39.967Z,265
2019-03-02T13:52:53.232Z,270
2019-03-02T13:54:10.235Z,270
2019-03-02T13:55:22.959Z,265
2019-03-02T13:56:37.319Z,245
2019-03-02T13:57:51.038Z,225
2019-03-02T13:59:04.290Z,210
2019-03-02T14:00:17.530Z,200
2019-03-02T14:01:32.637Z,195
2019-03-02T14:02:47.487Z,195
2019-03-02T14:04:00.828Z,195
2019-03-02T14:05:16.432Z,190
2019-03-02T14:06:28.837Z,185
2019-03-02T14:07:40.897Z,185
2019-03-02T14:08:53.153Z,180
2019-03-02T14:10:03.078Z,180
2019-03-02T14:11:13.012Z,180
2019-03-02T14:12:27.186Z,180
2019-03-02T14:13:40.191Z,185
2019-03-02T14:14:52.108Z,185
2019-03-02T14:16:06.823Z,190
2019-03-02T14:17:19.108Z,190
2019-03-02T14:18:33.511Z,190
2019-03-02T14:19:50.802Z,195
2019-03-02T14:21:03.832Z,200
2019-03-02T14:22:17.448Z,205
2019-03-02T14:23:34.867Z,210
2019-03-02T14:24:53.795Z,205
2019-03-02T14:26:07.565Z,200
2019-03-02T14:27:17.248Z,195
2019-03-02T14:28:30.384Z,190
2019-03-02T14:29:42.873Z,180
2019-03-02T14:30:57.062Z,175
2019-03-02T14:32:10.076Z,165
2019-03-02T14:33:20.173Z,165
2019-03-02T14:34:29.850Z,155
2019-03-02T14:35:42.072Z,150
2019-03-02T14:36:52.002Z,145
2019-03-02T14:38:01.925Z,145
2019-03-02T14:39:12.345Z,135
2019-03-02T14:40:24.251Z,130
2019-03-02T14:41:38.445Z,125
2019-03-02T14:42:50.644Z,120
2019-03-02T14:44:04.522Z,115
2019-03-02T14:45:17.048Z,115
2019-03-02T14:46:30.850Z,115
2019-03-02T14:47:43.877Z,115
2019-03-02T14:48:56.621Z,115
2019-03-02T14:50:13.074Z,115
2019-03-02T14:51:25.555Z,115
2019-03-02T14:52:40.531Z,115
2019-03-02T14:53:52.383Z,115
2019-03-02T14:55:04.173Z,115
2019-03-02T14:56:18.704Z,110
2019-03-02T14:57:31.984Z,110
2019-03-02T14:58:45.000Z,105
2019-03-02T14:59:57.559Z,100
2019-03-02T15:01:10.141Z,100
2019-03-02T15:02:23.899Z,95
2019-03-02T15:03:38.851Z,95
2019-03-02T15:04:52.530Z,90
2019-03-02T15:06:14.642Z,90
2019-03-02T15:07:29.634Z,90
2019-03-02T15:08:44.696Z,90
2019-03-02T15:09:56.934Z,90
2019-03-02T15:11:10.771Z,85
2019-03-02T15:12:23.356Z,85
2019-03-02T15:13:36.803Z,90
2019-03-02T15:14:49.816Z,90
2019-03-02T15:16:03.740Z,90
2019-03-02T15:17:17.146Z,90
2019-03-02T15:18:34.952Z,90
2019-03-02T15:20:01.292Z,85
2019-03-02T15:21:14.801Z,85
2019-03-02T15:22:29.172Z,85
2019-03-02T15:23:44.275Z,80
2019-03-02T15:25:00.642Z,80
2019-03-02T15:26:13.655Z,80
2019-03-02T15:27:27.209Z,80
2019-03-02T15:28:44.613Z,75
2019-03-02T15:29:57.586Z,75
2019-03-02T15:31:11.471Z,70
2019-03-02T15:32:25.322Z,70
2019-03-02T15:33:40.237Z,65
2019-03-02T15:35:02.919Z,65
2019-03-02T15:36:16.002Z,60
2019-03-02T15:37:29.138Z,60
2019-03-02T15:38:42.676Z,55
2019-03-02T15:39:58.339Z,55
2019-03-02T15:41:11.844Z,50
2019-03-02T15:42:26.131Z,50
2019-03-02T15:43:39.616Z,45
2019-03-02T15:44:55.669Z,45
2019-03-02T15:46:08.605Z,40
2019-03-02T15:47:21.229Z,40
2019-03-02T15:48:36.322Z,40
2019-03-02T15:49:50.040Z,35
2019-03-02T15:51:03.914Z,35
2019-03-02T15:52:17.241Z,35
2019-03-02T15:53:29.955Z,35
2019-03-02T15:54:42.531Z,35
2019-03-02T15:55:57.254Z,30
2019-03-02T15:57:14.111Z,30
2019-03-02T15:58:28.154Z,30
2019-03-02T15:59:45.181Z,30
2019-03-02T16:00:59.309Z,30
2019-03-02T16:02:11.590Z,30
2019-03-02T16:03:26.580Z,30
2019-03-02T16:04:41.574Z,30
2019-03-02T16:05:57.263Z,30
2019-03-02T16:07:09.116Z,30
2019-03-02T16:08:22.907Z,30
2019-03-02T16:09:40.264Z,30
2019-03-02T16:10:53.846Z,30
2019-03-02T16:12:08.241Z,30
2019-03-02T16:13:24.450Z,30
2019-03-02T16:14:38.866Z,25
2019-03-02T16:15:54.669Z,25
2019-03-02T16:17:08.489Z,25
2019-03-02T16:18:23.610Z,20
2019-03-02T16:19:38.393Z,20
2019-03-02T16:20:53.847Z,20
2019-03-02T16:22:07.053Z,20
2019-03-02T16:23:19.420Z,15
2019-03-02T16:24:33.229Z,15
2019-03-02T16:25:47.324Z,15
2019-03-02T16:27:02.112Z,15
2019-03-02T16:28:15.364Z,10
2019-03-02T16:29:28.759Z,10
2019-03-02T16:30:43.924Z,10
2019-03-02T16:31:54.949Z,5
2019-03-02T16:33:05.915Z,5
2019-03-02T16:34:19.738Z,5
2019-03-02T16:35:39.890Z,5
2019-03-02T16:36:51.059Z,5
2019-03-02T16:38:03.650Z,5
2019-03-02T16:39:17.662Z,5
2019-03-02T16:40:31.909Z,0
2019-03-02T16:41:43.899Z,0
2019-03-02T16:42:58.226Z,0
2019-03-02T16:44:10.588Z,0
2019-03-02T16:45:20.507Z,0
2019-03-02T16:46:30.428Z,0
2019-03-02T16:47:40.358Z,0
2019-03-02T16:48:50.023Z,0
2019-03-02T16:49:59.939Z,0
2019-03-02T16:51:09.861Z,0
2019-03-02T16:52:19.540Z,0
2019-03-02T16:53:32.171Z,0
2019-03-02T16:54:42.849Z,0
2019-03-02T16:55:54.960Z,0
2019-03-02T16:57:07.208Z,0
2019-03-02T16:58:20.589Z,0
2019-03-02T16:59:36.579Z,0
2019-03-02T17:00:53.451Z,0
2019-03-02T17:02:06.349Z,0
2019-03-02T17:03:19.030Z,0
2019-03-02T17:04:29.431Z,0
2019-03-02T17:05:44.119Z,0
2019-03-02T17:06:56.115Z,0
2019-03-02T17:08:08.369Z,0
2019-03-02T17:09:21.365Z,0
2019-03-02T17:10:33.279Z,0
2019-03-02T17:11:45.154Z,0
2019-03-02T17:12:58.871Z,0